CST,Max TemperatureF,Mean TemperatureF,Min TemperatureF,Max Dew PointF,MeanDew PointF,Min DewpointF,Max Humidity, Mean Humidity, Min Humidity, Max Sea Level PressureIn, Mean Sea Level PressureIn, Min Sea Level PressureIn, Max VisibilityMiles, Mean VisibilityMiles, Min VisibilityMiles, Max Wind SpeedMPH, Mean Wind SpeedMPH, Max Gust SpeedMPH,PrecipitationIn, CloudCover, Events, WindDirDegrees
2012-11-1,89,82,75,77,75,70,83,70,62,29.92,29.88,29.84,12,11,8,14,5,,0.00,5,,180
2012-11-2,87,81,75,77,73,68,89,73,62,29.91,29.86,29.83,10,10,10,14,6,,0.00,6,,158
2012-11-3,75,74,73,73,73,68,94,93,83,29.92,29.88,29.83,10,5,3,21,7,,0.00,8,Rain,87
2012-11-4,78,74,71,73,70,68,88,81,74,29.91,29.87,29.80,12,11,10,14,5,,0.00,8,,69
2012-11-5,87,81,73,77,72,68,83,70,52,29.91,29.85,29.76,12,12,10,8,5,,0.00,5,,16
2012-11-6,89,80,71,77,73,68,88,69,55,29.92,29.87,29.83,15,9,5,9,5,,0.00,4,,255
2012-11-7,87,80,73,75,73,70,88,69,62,29.90,29.86,29.80,12,11,10,12,6,,0.00,3,,250
2012-11-8,87,81,75,77,76,73,94,76,66,29.90,29.85,29.82,12,9,5,14,7,,0.00,2,,260
2012-11-9,89,81,73,79,75,68,83,74,70,29.88,29.82,29.77,10,9,6,14,4,,0.00,3,,270
2012-11-10,87,80,73,79,75,72,94,76,70,29.91,29.84,29.79,8,5,4,9,5,,0.00,4,,150
2012-11-11,86,80,73,77,73,64,74,71,69,29.92,29.86,29.82,5,4,3,9,5,,0.00,1,Fog,246
2012-11-12,86,80,73,77,73,64,74,72,66,29.95,29.86,29.80,4,3,3,9,6,,0.00,1,,223
2012-11-13,87,81,75,77,73,68,78,71,70,29.96,29.86,29.79,3,3,2,9,7,,0.00,3,Fog,251
2012-11-14,86,80,73,81,77,72,94,82,74,29.95,29.90,29.86,8,5,3,12,5,,0.00,2,,237
2012-11-15,91,83,75,79,76,73,94,77,63,29.94,29.87,29.80,8,7,2,9,6,,0.00,2,,237
2012-11-16,86,80,75,79,75,72,94,77,66,29.93,29.88,29.84,6,5,4,14,8,,0.00,1,,116
2012-11-17,87,81,75,77,75,72,94,74,66,29.98,29.93,29.88,8,7,6,9,5,,0.00,3,,111
2012-11-18,89,82,75,77,75,72,94,75,66,29.98,29.93,29.89,8,7,6,12,6,,0.00,1,,254
2012-11-19,89,82,75,79,75,70,94,76,70,29.93,29.87,29.81,8,6,6,9,4,,0.00,1,,257
2012-11-20,86,82,77,77,75,70,94,77,70,29.89,29.85,29.80,8,6,5,12,6,,0.00,6,,122
2012-11-21,91,83,75,79,76,72,94,78,59,29.95,29.89,29.82,8,8,7,12,4,,0.00,5,,291
2012-11-22,87,80,73,77,75,72,94,79,66,29.95,29.89,29.82,10,7,5,14,6,,0.00,4,,277
2012-11-23,87,81,75,79,75,70,94,76,66,29.94,29.87,29.83,8,6,4,12,6,,0.00,6,,268
2012-11-24,86,80,75,75,73,70,94,75,66,29.93,29.86,29.82,5,5,4,7,4,,0.00,6,,185
2012-11-25,87,81,75,77,74,72,94,75,66,29.90,29.85,29.81,8,6,5,16,5,,0.00,6,,266
2012-11-26,86,80,75,77,74,72,94,77,66,29.94,29.89,29.85,10,8,5,16,7,,0.00,3,,275
2012-11-27,86,80,73,77,73,70,94,75,66,30.00,29.92,29.87,10,9,8,9,5,,0.00,1,,216
2012-11-28,86,80,75,77,75,70,94,78,74,30.02,29.96,29.92,8,7,6,12,6,,0.00,2,,193
2012-11-29,89,81,73,77,73,68,88,73,66,29.96,29.90,29.84,8,6,5,16,7,,0.00,0,,270
2012-11-30,89,80,71,77,73,68,94,75,66,29.95,29.91,29.88,7,5,4,9,5,,0.00,3,,199